Armstrong, IL (61812)

7:09 AM CST on December 05, 2016 (GMT -0600)
Pilot Twp | | Change Station

Elev 738 ft 40.26 °N, 87.88 °W | Updated 11 minutes ago

Overcast
Overcast
32.0 °F
Feels Like 26 °F
N
7.0
Wind Variable Wind from SSW
Gusts 7.0 mph

Today
High -- | Low -- °F
--% Chance of Precip.
Yesterday
High -- | Low -- °F
Precip. -- in
Pressure 30.06 in
Visibility 7.0 miles
Clouds Overcast 500 ft
Windchill 26 °F
Dew Point 30 °F
Humidity 93%
Rainfall 0.00 in
Snow Depth Not available.
6:59 AM 4:25 PM
Waxing Crescent, 31% visible
METAR KTIP 051255Z AUTO 21005KT 7SM OVC005 01/00 A3006 RMK AO2 T00070001
Pressure 30.06 in
Visibility 7.0 miles
Clouds Overcast 500 ft
Windchill 26 °F
Dew Point 30 °F
Humidity 93%
Rainfall 0.00 in
Snow Depth Not available.
6:59 AM 4:25 PM
Waxing Crescent, 31% visible
METAR KTIP 051255Z AUTO 21005KT 7SM OVC005 01/00 A3006 RMK AO2 T00070001

10-Day Weather Forecast

Almanac

Astronomy

Dec. 05, 2016 Rise Set
Actual Time
Civil Twilight
Nautical Twilight
Astronomical Twilight
Moon
Length of Visible Light
Length of Day
Tomorrow will be .
, % of the Moon is Illuminated

Today's Extremes

State Highs State Lows

Community

WunderPhotos

Upload Photos

1,955,780 photos uploaded!

WunderBlog® & News

Nearby

Air Quality

  Air Quality AQ Index Pollutant
Not available.

Snow Depth

Station Depth Elevation

Earthquake Activity

City Distance Mag. Time & Date
Minimum magnitude displayed is 2.5.

Coastal Water Temperatures

Place Temperature

Stations

Nearby Weather Stations

Station Location Temp. Windchill Dew Point Humidity Wind Precip. Elev Updated Type
                   

Watches & Warnings

There are currently no watches in effect.